Time;durP1;ratioP1;P1;durP2;ratioP2;P2;SDS_P1;SDS_P2;PMS_P1;PMS_P2;Temp;Humidity;BMP_temperature;BMP_pressure;BME280_temperature;BME280_humidity;BME280_pressure;Samples;Min_cycle;Max_cycle;Signal;HPM_P1;HPM_P2
2022/03/12 00:02:12;;;;;;;28.23;5.28;;;;;;;1.68;45.27;98308.69;5009436;28;20557;-57
2022/03/12 00:04:38;;;;;;;36.60;6.50;;;;;;;1.83;43.56;98304.41;5011377;28;20026;-56
2022/03/12 00:07:04;;;;;;;22.63;4.68;;;;;;;1.79;47.24;98308.69;5008863;28;20664;-57
2022/03/12 00:09:29;;;;;;;25.00;4.93;;;;;;;1.82;47.76;98315.53;5011563;28;20045;-56
2022/03/12 00:11:58;;;;;;;22.73;5.00;;;;;;;1.75;45.92;98319.84;5009242;28;20053;-56
2022/03/12 00:14:24;;;;;;;28.73;5.32;;;;;;;1.60;47.29;98315.56;5011439;28;20030;-60
2022/03/12 00:16:50;;;;;;;28.77;5.07;;;;;;;1.59;45.99;98311.28;5007253;28;20104;-58
2022/03/12 00:19:16;;;;;;;30.27;5.38;;;;;;;1.74;48.44;98320.69;5009383;28;20109;-58
2022/03/12 00:21:43;;;;;;;23.33;4.82;;;;;;;1.60;46.37;98319.84;5010656;28;20523;-59
2022/03/12 00:24:11;;;;;;;23.95;4.97;;;;;;;1.60;49.04;98328.44;5010343;28;20025;-55
2022/03/12 00:26:40;;;;;;;20.50;4.45;;;;;;;1.76;54.20;98328.41;5008256;28;20049;-56
2022/03/12 00:29:12;;;;;;;28.25;5.00;;;;;;;1.77;52.03;98325.84;5008618;28;20040;-54
2022/03/12 00:31:38;;;;;;;29.10;5.13;;;;;;;1.92;52.60;98320.69;5009288;28;20088;-55
2022/03/12 00:34:03;;;;;;;29.33;5.75;;;;;;;1.60;46.81;98322.41;5005734;28;20792;-56
2022/03/12 00:36:29;;;;;;;27.65;4.70;;;;;;;1.56;50.47;98323.28;5007539;28;20171;-56
2022/03/12 00:38:54;;;;;;;35.08;6.10;;;;;;;1.40;47.46;98322.41;5009870;28;20025;-56
2022/03/12 00:41:20;;;;;;;24.23;5.25;;;;;;;1.55;52.65;98319.84;5008655;28;20061;-56
2022/03/12 00:43:46;;;;;;;30.45;5.75;;;;;;;1.67;48.97;98325.00;5012422;28;20877;-56
2022/03/12 00:46:13;;;;;;;23.58;5.30;;;;;;;1.82;52.03;98333.53;5008396;28;20038;-55
2022/03/12 00:48:39;;;;;;;30.63;5.30;;;;;;;1.61;52.41;98337.84;5009209;28;20721;-55
2022/03/12 00:51:07;;;;;;;30.00;5.32;;;;;;;1.56;45.55;98342.13;5009351;28;20045;-55
2022/03/12 00:53:34;;;;;;;29.90;5.57;;;;;;;1.25;44.33;98343.81;5008449;28;20025;-56
2022/03/12 00:55:59;;;;;;;31.05;5.38;;;;;;;1.54;50.83;98336.13;5008587;28;20045;-58
2022/03/12 00:58:24;;;;;;;29.58;5.82;;;;;;;1.13;42.73;98336.94;5010751;28;20114;-57
2022/03/12 01:00:50;;;;;;;26.08;5.07;;;;;;;1.34;47.74;98331.84;5007594;28;20049;-57
2022/03/12 01:03:15;;;;;;;22.98;5.40;;;;;;;1.40;47.24;98335.25;5008981;28;20026;-56
2022/03/12 01:05:50;;;;;;;28.35;5.60;;;;;;;1.52;48.60;98340.41;5008672;28;20033;-58
2022/03/12 01:08:16;;;;;;;28.92;5.68;;;;;;;1.24;41.94;98347.25;5015742;28;20036;-59
2022/03/12 01:10:43;;;;;;;22.52;5.07;;;;;;;1.33;45.85;98345.53;5011613;28;20106;-59
2022/03/12 01:13:10;;;;;;;30.63;5.45;;;;;;;1.16;45.63;98339.53;5014396;28;20022;-57
2022/03/12 01:15:37;;;;;;;25.90;5.35;;;;;;;1.11;45.47;98341.22;5010211;28;20037;-59
2022/03/12 01:18:03;;;;;;;29.95;5.93;;;;;;;1.31;46.26;98342.09;5015120;28;20069;-58
2022/03/12 01:20:28;;;;;;;28.88;5.45;;;;;;;1.33;48.84;98345.53;5013827;28;20041;-59
2022/03/12 01:22:54;;;;;;;28.60;5.65;;;;;;;1.05;45.17;98346.31;5012627;28;20881;-57
2022/03/12 01:25:19;;;;;;;30.17;5.82;;;;;;;1.14;49.06;98348.94;5012145;28;20025;-58
2022/03/12 01:27:45;;;;;;;27.42;5.50;;;;;;;1.11;43.51;98349.78;5013621;28;20387;-57
2022/03/12 01:30:11;;;;;;;30.42;5.90;;;;;;;0.84;42.15;98345.41;5011321;28;20030;-57
2022/03/12 01:32:36;;;;;;;26.58;5.55;;;;;;;0.90;44.37;98344.56;5013970;28;20145;-58
2022/03/12 01:35:04;;;;;;;27.42;5.93;;;;;;;0.98;44.98;98342.06;5011575;28;20091;-59
2022/03/12 01:37:29;;;;;;;30.45;5.78;;;;;;;0.76;43.18;98336.84;5012422;28;20073;-58
2022/03/12 01:39:55;;;;;;;26.85;5.47;;;;;;;0.82;47.08;98336.84;5011328;28;20455;-59
2022/03/12 01:42:22;;;;;;;23.48;5.22;;;;;;;1.16;51.16;98329.25;5013170;28;20733;-59
2022/03/12 01:44:49;;;;;;;42.25;6.97;;;;;;;1.04;47.38;98342.91;5008121;28;20518;-59
2022/03/12 01:47:19;;;;;;;28.30;5.03;;;;;;;1.25;47.75;98328.38;5009914;28;20037;-55
2022/03/12 01:49:47;;;;;;;25.50;5.35;;;;;;;0.52;41.34;98338.44;5011312;28;20033;-58
2022/03/12 01:52:13;;;;;;;24.23;5.60;;;;;;;0.89;42.75;98343.72;5011242;28;20474;-56
2022/03/12 01:54:41;;;;;;;29.15;5.43;;;;;;;0.22;41.85;98340.84;5010303;28;20022;-56
2022/03/12 01:57:09;;;;;;;28.98;5.63;;;;;;;0.70;46.31;98326.53;5012629;28;20407;-56
2022/03/12 01:59:35;;;;;;;32.90;5.82;;;;;;;0.67;46.45;98323.97;5011599;28;20115;-56
2022/03/12 02:02:03;;;;;;;25.48;5.07;;;;;;;0.97;46.69;98330.91;5010005;28;20052;-56
2022/03/12 02:04:29;;;;;;;26.50;5.05;;;;;;;1.28;48.90;98325.81;5012537;28;20025;-57
2022/03/12 02:06:58;;;;;;;26.27;5.90;;;;;;;0.81;45.65;98331.69;5011017;28;20793;-57
2022/03/12 02:09:24;;;;;;;34.88;6.15;;;;;;;1.01;44.47;98334.31;5012077;28;20454;-59
2022/03/12 02:11:51;;;;;;;37.00;6.57;;;;;;;0.80;45.14;98325.72;5011280;28;20555;-58
2022/03/12 02:14:20;;;;;;;26.08;5.28;;;;;;;0.84;46.86;98327.44;5012760;28;20091;-59
2022/03/12 02:16:59;;;;;;;25.20;5.60;;;;;;;0.89;44.99;98323.19;5009524;28;20088;-57
2022/03/12 02:19:26;;;;;;;31.02;5.78;;;;;;;1.14;50.83;98318.97;5011404;28;20022;-55
2022/03/12 02:22:05;;;;;;;24.38;5.47;;;;;;;0.68;43.77;98328.22;5010923;28;20132;-56
2022/03/12 02:24:34;;;;;;;29.50;6.07;;;;;;;0.47;42.15;98324.72;5011034;28;20079;-56
2022/03/12 02:27:01;;;;;;;35.05;6.20;;;;;;;0.56;43.00;98319.63;5010146;28;20607;-57
2022/03/12 02:29:27;;;;;;;36.15;6.45;;;;;;;0.95;46.74;98323.19;5009835;28;20030;-56
2022/03/12 02:31:56;;;;;;;23.92;5.45;;;;;;;0.57;42.16;98318.78;5010536;28;20740;-56
2022/03/12 02:34:28;;;;;;;27.67;5.80;;;;;;;0.69;46.80;98312.00;5009355;28;20141;-56
2022/03/12 02:36:57;;;;;;;24.20;6.10;;;;;;;1.05;45.49;98307.78;5017311;28;20118;-57
2022/03/12 02:39:27;;;;;;;28.00;5.57;;;;;;;1.07;48.36;98316.38;5010470;28;20553;-57
2022/03/12 02:41:54;;;;;;;32.55;5.70;;;;;;;0.64;44.15;98313.69;5010911;28;20078;-55
2022/03/12 02:44:22;;;;;;;32.38;6.78;;;;;;;0.63;42.05;98314.53;5011661;28;20022;-56
2022/03/12 02:47:11;;;;;;;25.90;5.22;;;;;;;0.92;50.05;98307.78;5008810;28;20080;-56
2022/03/12 02:49:39;;;;;;;35.35;6.45;;;;;;;1.06;51.12;98300.09;5011183;28;20602;-56
2022/03/12 02:52:05;;;;;;;30.17;5.95;;;;;;;0.89;48.36;98294.91;5007946;28;20084;-56
2022/03/12 02:54:31;;;;;;;23.73;5.60;;;;;;;0.95;50.51;98294.94;5012969;28;20570;-57
2022/03/12 02:56:56;;;;;;;23.55;5.50;;;;;;;0.64;44.61;98295.69;5011544;28;20041;-55
2022/03/12 02:59:22;;;;;;;27.23;5.43;;;;;;;0.75;49.40;98300.03;5012769;28;20178;-56
2022/03/12 03:01:48;;;;;;;29.23;5.60;;;;;;;0.80;48.31;98302.59;5009417;28;20120;-55
2022/03/12 03:04:13;;;;;;;24.55;5.32;;;;;;;0.90;49.46;98299.22;5012018;28;20061;-55
2022/03/12 03:06:38;;;;;;;28.98;5.97;;;;;;;0.63;45.10;98301.72;5009279;28;20044;-57
2022/03/12 03:09:04;;;;;;;30.85;6.25;;;;;;;0.75;44.90;98294.03;5010798;28;20024;-56
2022/03/12 03:11:39;;;;;;;34.47;5.97;;;;;;;0.80;48.08;98302.59;5010625;28;20033;-57
2022/03/12 03:14:12;;;;;;;24.88;5.72;;;;;;;0.36;42.92;98301.56;5011849;28;20542;-55
2022/03/12 03:16:39;;;;;;;32.58;5.68;;;;;;;0.85;50.07;98306.06;5009259;28;20087;-56
2022/03/12 03:19:04;;;;;;;25.35;5.55;;;;;;;1.06;51.15;98299.25;5010104;28;20109;-56
2022/03/12 03:21:30;;;;;;;32.35;6.53;;;;;;;0.62;44.08;98298.25;5011105;28;20044;-56
2022/03/12 03:23:56;;;;;;;26.33;5.95;;;;;;;0.77;44.97;98310.28;5011008;28;20385;-56
2022/03/12 03:26:48;;;;;;;24.58;5.43;;;;;;;0.87;51.10;98306.91;5008889;28;20040;-55
2022/03/12 03:29:15;;;;;;;;;;;;;;;1.38;54.38;98319.84;5010039;28;20492;-56
2022/03/12 03:31:41;;;;;;;30.90;5.13;;;;;;;1.48;55.60;98323.28;5009926;28;19923;-56
2022/03/12 03:34:06;;;;;;;32.38;5.72;;;;;;;1.23;50.48;98323.25;5009257;28;20033;-56
2022/03/12 03:36:32;;;;;;;29.17;4.85;;;;;;;1.25;52.68;98325.81;5009072;28;20052;-55
2022/03/12 03:38:57;;;;;;;24.35;5.70;;;;;;;1.12;47.90;98330.94;5010358;28;20027;-55
2022/03/12 03:41:23;;;;;;;30.23;5.10;;;;;;;1.76;67.57;98325.84;5008853;28;20084;-54
2022/03/12 03:43:51;;;;;;;31.05;5.57;;;;;;;1.74;60.06;98339.56;5011942;28;20120;-57
2022/03/12 03:46:19;;;;;;;26.27;5.15;;;;;;;0.99;52.84;98339.47;5007503;28;20124;-55
2022/03/12 03:48:47;;;;;;;28.30;5.82;;;;;;;0.85;54.42;98336.03;5009556;28;20108;-57
2022/03/12 03:51:12;;;;;;;32.25;6.47;;;;;;;1.02;52.12;98328.34;5009695;28;20029;-56
2022/03/12 03:53:38;;;;;;;24.70;5.72;;;;;;;0.56;46.24;98326.50;5009343;28;20033;-56
2022/03/12 03:56:04;;;;;;;27.50;5.95;;;;;;;0.72;51.39;98332.56;5008479;28;20088;-56
2022/03/12 03:58:32;;;;;;;25.90;5.28;;;;;;;0.69;54.90;98335.09;5010643;28;20029;-56
2022/03/12 04:01:03;;;;;;;27.02;5.75;;;;;;;0.92;54.50;98341.16;5008554;28;20503;-57
2022/03/12 04:03:32;;;;;;;24.45;5.20;;;;;;;1.36;58.01;98334.41;5009026;28;20480;-57
2022/03/12 04:05:59;;;;;;;31.38;6.07;;;;;;;1.01;50.08;98345.50;5008762;28;20042;-56
2022/03/12 04:08:25;;;;;;;30.35;6.00;;;;;;;1.00;53.54;98340.34;5010171;28;20117;-56
2022/03/12 04:10:50;;;;;;;30.00;5.72;;;;;;;1.13;53.69;98348.06;5010387;28;20041;-56
2022/03/12 04:13:20;;;;;;;28.50;5.93;;;;;;;0.63;49.92;98350.50;5010065;28;20064;-56
2022/03/12 04:15:47;;;;;;;26.23;6.07;;;;;;;0.19;45.44;98357.94;5007922;28;20096;-55
2022/03/12 04:18:18;;;;;;;25.67;6.20;;;;;;;0.50;47.81;98353.00;5011435;28;20034;-56
2022/03/12 04:20:47;;;;;;;27.17;5.70;;;;;;;0.42;47.38;98348.66;5007281;28;20511;-56
2022/03/12 04:23:18;;;;;;;32.30;6.47;;;;;;;0.48;49.23;98351.25;5010244;28;20029;-56
2022/03/12 04:25:44;;;;;;;25.92;5.85;;;;;;;0.38;46.78;98351.19;5007752;28;20052;-56
2022/03/12 04:28:09;;;;;;;35.67;6.05;;;;;;;0.75;55.74;98356.53;5008733;28;20439;-57
2022/03/12 04:30:35;;;;;;;22.40;5.32;;;;;;;0.47;46.48;98360.66;5008916;28;20033;-55
2022/03/12 04:33:01;;;;;;;34.60;6.55;;;;;;;0.65;46.71;98353.91;5009605;28;20132;-56
2022/03/12 04:35:27;;;;;;;27.92;5.55;;;;;;;0.54;51.26;98354.72;5006798;28;20045;-57
2022/03/12 04:37:52;;;;;;;31.92;6.20;;;;;;;0.86;49.97;98359.13;5009018;28;20036;-56
2022/03/12 04:40:23;;;;;;;37.45;6.45;;;;;;;0.48;50.97;98367.53;5007251;28;20026;-58
2022/03/12 04:42:48;;;;;;;22.02;5.40;;;;;;;0.56;49.25;98376.09;5008444;28;20071;-55
2022/03/12 04:45:17;;;;;;;28.42;5.72;;;;;;;0.58;51.12;98374.41;5006736;28;20490;-56
2022/03/12 04:47:43;;;;;;;28.90;5.78;;;;;;;0.64;50.52;98380.41;5009746;28;20036;-58
2022/03/12 04:50:11;;;;;;;28.55;5.88;;;;;;;0.76;55.98;98377.91;5008439;28;20030;-57
2022/03/12 04:52:36;;;;;;;26.75;5.55;;;;;;;0.79;54.08;98380.50;5007851;28;20033;-57
2022/03/12 04:55:11;;;;;;;29.00;5.72;;;;;;;0.91;52.18;98383.09;5006937;28;20542;-58
2022/03/12 04:57:36;;;;;;;30.23;5.20;;;;;;;0.94;55.15;98383.13;5006091;28;20049;-57
2022/03/12 05:00:04;;;;;;;28.15;5.85;;;;;;;0.63;49.48;98391.56;5009009;28;20025;-56
2022/03/12 05:02:29;;;;;;;29.98;5.38;;;;;;;0.75;51.17;98394.16;5009558;28;20124;-57
2022/03/12 05:04:55;;;;;;;45.67;7.25;;;;;;;0.71;49.65;98395.00;5004807;28;20031;-57
2022/03/12 05:07:20;;;;;;;26.35;5.18;;;;;;;0.94;56.50;98398.53;5007531;28;20132;-56
2022/03/12 05:09:46;;;;;;;31.20;6.32;;;;;;;0.57;47.65;98400.94;5008317;28;20030;-55
2022/03/12 05:12:11;;;;;;;25.65;5.00;;;;;;;1.42;61.78;98405.53;5008271;28;20033;-57
2022/03/12 05:14:37;;;;;;;30.08;5.85;;;;;;;0.98;52.93;98401.13;5009231;28;20126;-57
2022/03/12 05:17:05;;;;;;;20.55;4.43;;;;;;;1.12;56.62;98413.16;5007567;28;20624;-57
2022/03/12 05:19:35;;;;;;;32.30;6.10;;;;;;;1.01;53.31;98411.41;5007049;28;20036;-58
2022/03/12 05:22:00;;;;;;;29.25;5.70;;;;;;;0.70;49.06;98419.84;5009381;28;20482;-57
2022/03/12 05:24:26;;;;;;;24.00;5.70;;;;;;;0.75;53.64;98417.28;5009363;28;20630;-56
2022/03/12 05:26:51;;;;;;;28.30;5.97;;;;;;;1.12;52.22;98420.00;5008172;28;20352;-57
2022/03/12 05:29:18;;;;;;;28.55;5.72;;;;;;;1.01;53.53;98426.81;5006664;28;20112;-55
2022/03/12 05:31:43;;;;;;;35.28;6.50;;;;;;;0.93;52.29;98427.63;5006277;28;20456;-56
2022/03/12 05:34:08;;;;;;;33.47;5.97;;;;;;;0.91;52.90;98418.22;5008332;28;20164;-56
2022/03/12 05:36:35;;;;;;;29.33;5.72;;;;;;;0.77;53.03;98416.44;5006497;28;20078;-58
2022/03/12 05:39:01;;;;;;;32.30;6.15;;;;;;;1.08;53.94;98423.41;5008292;28;20080;-56
2022/03/12 05:41:27;;;;;;;23.23;4.72;;;;;;;1.22;55.97;98434.59;5008144;28;20037;-56
2022/03/12 05:43:52;;;;;;;25.35;5.57;;;;;;;1.38;51.64;98432.06;5008828;28;20026;-56
2022/03/12 05:46:21;;;;;;;34.15;6.22;;;;;;;1.24;51.38;98437.19;5006895;28;20112;-57
2022/03/12 05:48:47;;;;;;;28.42;6.15;;;;;;;1.56;55.39;98450.09;5009136;28;20029;-55
2022/03/12 05:51:13;;;;;;;25.00;5.35;;;;;;;1.12;51.25;98454.28;5006639;28;20041;-58
2022/03/12 05:53:39;;;;;;;21.13;5.32;;;;;;;1.72;55.14;98451.84;5007944;28;20764;-57
2022/03/12 05:56:05;;;;;;;26.88;5.68;;;;;;;1.61;53.76;98458.69;5008994;28;20057;-58
2022/03/12 05:58:38;;;;;;;27.98;5.88;;;;;;;2.07;47.41;98450.19;5012268;28;20029;-57
2022/03/12 06:01:04;;;;;;;36.17;6.50;;;;;;;2.59;48.95;98455.31;5005108;28;20862;-57
2022/03/12 06:03:30;;;;;;;24.23;6.05;;;;;;;4.63;43.36;98447.22;5011983;28;20531;-57
2022/03/12 06:05:59;;;;;;;30.00;6.38;;;;;;;5.62;40.81;98448.66;5009059;28;20146;-58
2022/03/12 06:08:28;;;;;;;24.52;5.95;;;;;;;6.04;38.19;98442.00;5012253;28;20036;-55
2022/03/12 06:10:56;;;;;;;23.77;6.05;;;;;;;6.51;38.52;98460.25;5009790;28;20035;-56
2022/03/12 06:13:23;;;;;;;21.60;6.00;;;;;;;7.76;33.99;98460.41;5012210;28;20084;-58
2022/03/12 06:15:58;;;;;;;22.92;5.85;;;;;;;6.14;36.00;98459.13;5009158;28;20872;-56
2022/03/12 06:18:24;;;;;;;25.42;6.20;;;;;;;8.01;32.32;98463.28;5010274;28;20713;-57
2022/03/12 06:20:49;;;;;;;21.90;6.07;;;;;;;6.66;33.96;98464.31;5012626;28;20033;-55
2022/03/12 06:23:15;;;;;;;25.95;6.07;;;;;;;6.87;32.17;98468.25;5012053;28;20479;-57
2022/03/12 06:25:40;;;;;;;24.27;6.03;;;;;;;7.29;33.61;98463.97;5011722;28;20034;-58
2022/03/12 06:28:05;;;;;;;22.10;6.40;;;;;;;6.23;33.21;98471.09;5011666;28;20021;-58
2022/03/12 06:30:31;;;;;;;25.42;6.65;;;;;;;5.58;33.36;98479.72;5010808;28;20034;-57
2022/03/12 06:32:57;;;;;;;24.38;6.00;;;;;;;5.90;35.13;98483.63;5012267;28;20033;-57
2022/03/12 06:35:24;;;;;;;23.65;5.97;;;;;;;6.63;35.82;98477.31;5008736;28;20113;-58
2022/03/12 06:37:49;;;;;;;25.35;5.75;;;;;;;6.20;39.29;98481.50;5011616;28;20021;-59
2022/03/12 06:40:16;;;;;;;25.13;6.57;;;;;;;5.98;33.96;98479.22;5009632;28;20108;-58
2022/03/12 06:42:43;;;;;;;22.10;5.53;;;;;;;6.43;35.09;98470.72;5011806;28;20523;-58
2022/03/12 06:45:10;;;;;;;25.50;6.25;;;;;;;5.47;34.73;98471.25;5010495;28;20661;-57
2022/03/12 06:47:38;;;;;;;27.60;5.88;;;;;;;6.09;35.95;98473.03;5012816;28;20037;-58
2022/03/12 06:50:07;;;;;;;27.98;6.55;;;;;;;7.46;31.95;98465.34;5010238;28;20060;-58
2022/03/12 06:52:34;;;;;;;22.70;6.00;;;;;;;8.63;30.91;98468.72;5010866;28;20448;-59
2022/03/12 06:54:59;;;;;;;29.40;6.57;;;;;;;8.39;30.63;98477.13;5011913;28;20096;-58
2022/03/12 06:57:24;;;;;;;22.23;6.05;;;;;;;8.56;29.14;98480.16;5010370;28;20124;-59
2022/03/12 06:59:50;;;;;;;27.70;6.72;;;;;;;10.28;28.24;98473.56;5010807;28;20188;-57
2022/03/12 07:02:15;;;;;;;23.77;6.00;;;;;;;10.44;28.17;98485.25;5009110;28;20406;-59
2022/03/12 07:04:40;;;;;;;27.83;6.30;;;;;;;10.91;30.94;98484.53;5011916;28;20126;-58
2022/03/12 07:07:06;;;;;;;23.08;6.47;;;;;;;10.45;27.21;98468.66;5009639;28;20152;-56
2022/03/12 07:09:32;;;;;;;19.45;5.65;;;;;;;11.07;25.39;98471.81;5013317;28;20048;-58
2022/03/12 07:11:58;;;;;;;25.77;6.50;;;;;;;9.68;27.03;98483.22;5013143;28;20180;-59
2022/03/12 07:14:24;;;;;;;23.10;6.78;;;;;;;9.81;27.42;98482.81;5009660;28;20060;-58
2022/03/12 07:16:50;;;;;;;23.23;6.13;;;;;;;13.63;24.62;98476.28;5007543;28;20045;-58
2022/03/12 07:19:16;;;;;;;19.23;5.80;;;;;;;12.89;25.50;98476.06;5009903;28;20033;-57
2022/03/12 07:21:41;;;;;;;19.35;6.20;;;;;;;9.96;26.25;98481.50;5010044;28;20126;-58
2022/03/12 07:24:07;;;;;;;19.85;5.78;;;;;;;11.03;27.85;98475.41;5010493;28;20067;-58
2022/03/12 07:26:32;;;;;;;20.65;5.63;;;;;;;11.19;26.12;98476.56;5009972;28;20050;-59
2022/03/12 07:28:59;;;;;;;26.98;6.43;;;;;;;9.04;27.70;98487.63;5009451;28;20032;-58
2022/03/12 07:31:25;;;;;;;23.55;6.10;;;;;;;9.85;26.75;98473.13;5011131;28;20049;-56
2022/03/12 07:33:50;;;;;;;19.35;5.70;;;;;;;11.53;25.89;98470.13;5009096;28;20045;-57
2022/03/12 07:36:16;;;;;;;21.98;6.32;;;;;;;11.83;25.78;98475.94;5007925;28;20073;-59
2022/03/12 07:38:41;;;;;;;22.58;6.00;;;;;;;10.67;25.75;98476.63;5009603;28;20037;-58
2022/03/12 07:41:07;;;;;;;23.00;6.32;;;;;;;12.28;24.17;98475.09;5009978;28;20037;-57
2022/03/12 07:43:32;;;;;;;18.38;5.68;;;;;;;11.00;25.57;98469.38;5009176;28;20029;-57
2022/03/12 07:45:58;;;;;;;23.88;6.35;;;;;;;12.98;25.19;98469.59;5007858;28;20054;-58
2022/03/12 07:48:23;;;;;;;22.15;6.18;;;;;;;10.25;25.45;98477.09;5010408;28;20060;-57
2022/03/12 07:50:49;;;;;;;21.98;6.03;;;;;;;12.51;25.69;98468.06;5008715;28;20061;-58
2022/03/12 07:53:14;;;;;;;21.08;5.80;;;;;;;14.58;23.54;98475.34;5008901;28;20022;-60
2022/03/12 07:55:40;;;;;;;22.00;6.25;;;;;;;13.15;23.18;98482.78;5008370;28;20050;-57
2022/03/12 07:58:07;;;;;;;20.20;5.60;;;;;;;10.54;25.01;98493.59;5009330;28;20823;-55
2022/03/12 08:00:32;;;;;;;23.90;6.28;;;;;;;13.08;23.49;98476.97;5007129;28;20033;-58
2022/03/12 08:02:59;;;;;;;17.35;5.82;;;;;;;14.49;22.34;98478.41;5008760;28;20029;-58
2022/03/12 08:05:25;;;;;;;23.02;6.63;;;;;;;12.30;23.20;98475.88;5009357;28;20032;-58
2022/03/12 08:07:53;;;;;;;23.42;6.25;;;;;;;13.37;23.02;98468.78;5009995;28;20041;-58
2022/03/12 08:10:18;;;;;;;21.63;6.22;;;;;;;11.63;23.83;98478.47;5009189;28;20026;-58
2022/03/12 08:12:44;;;;;;;23.38;6.18;;;;;;;12.90;23.16;98481.25;5009663;28;20048;-59
2022/03/12 08:15:12;;;;;;;19.48;5.95;;;;;;;12.97;22.87;98478.34;5008754;28;20056;-58
2022/03/12 08:17:39;;;;;;;20.80;6.47;;;;;;;14.10;22.37;98471.50;5008918;28;20059;-58
2022/03/12 08:20:07;;;;;;;21.33;6.15;;;;;;;14.07;22.17;98470.75;5008753;28;20029;-59
2022/03/12 08:22:35;;;;;;;22.95;6.03;;;;;;;14.14;22.64;98480.97;5010787;28;20296;-58
2022/03/12 08:25:01;;;;;;;24.63;6.82;;;;;;;14.14;21.67;98476.56;5010279;28;20565;-58
2022/03/12 08:27:27;;;;;;;23.27;6.07;;;;;;;13.17;22.38;98483.56;5005731;28;20147;-58
2022/03/12 08:29:52;;;;;;;29.02;7.93;;;;;;;11.06;24.05;98483.97;5008580;28;20227;-58
2022/03/12 08:32:17;;;;;;;17.60;5.47;;;;;;;11.02;23.94;98485.00;5009743;28;20052;-58
2022/03/12 08:34:43;;;;;;;28.80;7.25;;;;;;;12.66;23.17;98477.91;5007276;28;20029;-57
2022/03/12 08:37:09;;;;;;;21.33;6.20;;;;;;;10.22;24.53;98485.03;5009162;28;20420;-57
2022/03/12 08:39:35;;;;;;;23.83;6.57;;;;;;;10.24;24.95;98475.41;5007755;28;20574;-57
2022/03/12 08:42:01;;;;;;;24.45;6.85;;;;;;;14.14;22.01;98473.09;5009232;28;20041;-59
2022/03/12 08:44:26;;;;;;;18.10;5.63;;;;;;;12.84;23.22;98476.25;5009128;28;20410;-59
2022/03/12 08:46:52;;;;;;;22.95;6.30;;;;;;;11.84;24.21;98479.44;5007802;28;20065;-57
2022/03/12 08:49:18;;;;;;;23.77;5.90;;;;;;;10.97;24.35;98484.31;5006887;28;20145;-58
2022/03/12 08:51:44;;;;;;;24.92;6.38;;;;;;;12.20;23.39;98481.53;5005217;28;20455;-58
2022/03/12 08:54:10;;;;;;;24.42;6.70;;;;;;;12.85;22.97;98483.19;5008901;28;20692;-59
2022/03/12 08:56:36;;;;;;;20.85;6.22;;;;;;;10.90;24.46;98483.69;5006662;28;20052;-58
2022/03/12 08:59:03;;;;;;;22.85;6.05;;;;;;;11.10;23.76;98467.31;5008228;28;20062;-59
2022/03/12 09:01:30;;;;;;;19.92;6.13;;;;;;;11.99;24.19;98471.00;5007841;28;20038;-59
2022/03/12 09:03:56;;;;;;;19.17;5.72;;;;;;;11.48;24.06;98461.59;5009222;28;20471;-55
2022/03/12 09:06:23;;;;;;;24.40;6.63;;;;;;;10.40;24.59;98473.19;5008993;28;20545;-57
2022/03/12 09:08:49;;;;;;;19.38;6.07;;;;;;;11.24;24.81;98461.59;5009339;28;20036;-57
2022/03/12 09:11:18;;;;;;;23.40;6.30;;;;;;;10.01;25.30;98473.53;5008106;28;20061;-58
2022/03/12 09:13:45;;;;;;;24.73;6.45;;;;;;;11.53;24.73;98464.91;5008570;28;20022;-59
2022/03/12 09:16:11;;;;;;;28.17;6.85;;;;;;;12.13;23.47;98463.47;5006859;28;20046;-57
2022/03/12 09:18:36;;;;;;;18.10;5.38;;;;;;;9.65;25.21;98465.94;5007374;28;20083;-58
2022/03/12 09:21:02;;;;;;;25.33;6.75;;;;;;;10.97;24.45;98460.81;5009009;28;20080;-59
2022/03/12 09:23:27;;;;;;;23.73;6.90;;;;;;;11.86;23.66;98456.69;5008301;28;20053;-58
2022/03/12 09:25:53;;;;;;;21.92;5.88;;;;;;;10.67;24.87;98460.13;5007924;28;20107;-58
2022/03/12 09:28:19;;;;;;;18.02;6.20;;;;;;;11.89;23.24;98460.03;5007667;28;20125;-57
2022/03/12 09:30:50;;;;;;;19.08;6.05;;;;;;;12.06;23.77;98443.72;5012010;28;20037;-58
2022/03/12 09:33:16;;;;;;;24.83;6.15;;;;;;;12.16;23.14;98452.03;5012308;28;20017;-58
2022/03/12 09:35:41;;;;;;;20.45;6.47;;;;;;;12.10;23.67;98455.75;5010516;28;20068;-59
2022/03/12 09:38:06;;;;;;;24.70;6.40;;;;;;;12.85;23.06;98445.72;5011983;28;20033;-59
2022/03/12 09:40:32;;;;;;;23.95;7.22;;;;;;;11.45;23.98;98444.28;5012267;28;20129;-59
2022/03/12 09:42:57;;;;;;;22.75;6.35;;;;;;;11.00;23.83;98448.50;5012870;28;20025;-56
2022/03/12 09:45:24;;;;;;;30.45;7.00;;;;;;;12.45;23.75;98437.75;5009186;28;20139;-56
2022/03/12 09:47:50;;;;;;;18.83;5.40;;;;;;;12.24;22.86;98442.13;5012720;28;20029;-58
2022/03/12 09:50:16;;;;;;;25.70;6.30;;;;;;;12.44;22.76;98446.53;5012160;28;20034;-56
2022/03/12 09:52:42;;;;;;;20.23;5.82;;;;;;;12.26;23.25;98444.66;5010945;28;20018;-59
2022/03/12 09:55:08;;;;;;;21.65;6.40;;;;;;;13.80;22.43;98436.22;5010563;28;20095;-59
2022/03/12 09:57:34;;;;;;;26.38;6.65;;;;;;;13.06;22.76;98443.91;5012628;28;20717;-59
2022/03/12 10:00:01;;;;;;;25.05;6.25;;;;;;;12.88;22.83;98438.56;5011600;28;20026;-55
2022/03/12 10:02:26;;;;;;;21.23;6.13;;;;;;;11.55;24.11;98439.56;5011310;28;20041;-60
2022/03/12 10:04:53;;;;;;;34.72;8.05;;;;;;;11.53;23.46;98438.78;5010010;28;20024;-54
2022/03/12 10:07:18;;;;;;;23.17;6.45;;;;;;;11.44;24.22;98432.13;5008886;28;20042;-57
2022/03/12 10:09:44;;;;;;;25.13;7.22;;;;;;;10.33;24.27;98438.66;5010729;28;20030;-56
2022/03/12 10:12:10;;;;;;;22.90;6.82;;;;;;;11.58;24.02;98434.22;5009316;28;20137;-56
2022/03/12 10:14:35;;;;;;;24.00;6.25;;;;;;;13.32;22.79;98432.28;5010997;28;20132;-57
2022/03/12 10:17:02;;;;;;;23.48;6.35;;;;;;;12.72;23.09;98427.91;5011399;28;20048;-56
2022/03/12 10:19:34;;;;;;;27.42;7.22;;;;;;;11.65;23.74;98421.78;5012407;28;20113;-56
2022/03/12 10:21:59;;;;;;;26.13;7.97;;;;;;;12.59;23.00;98428.47;5010834;28;20464;-56
2022/03/12 10:24:25;;;;;;;24.85;7.32;;;;;;;12.35;23.34;98418.13;5010556;28;20291;-55
2022/03/12 10:26:51;;;;;;;26.50;7.72;;;;;;;12.01;23.82;98408.22;5009160;28;20041;-56
2022/03/12 10:29:16;;;;;;;21.27;6.53;;;;;;;13.41;27.98;98408.28;5010623;28;20033;-55
2022/03/12 10:31:42;;;;;;;24.10;7.25;;;;;;;13.49;26.06;98413.16;5012412;28;20045;-55
2022/03/12 10:34:21;;;;;;;25.33;7.72;;;;;;;13.64;24.96;98402.00;5012902;28;20387;-61
2022/03/12 10:36:48;;;;;;;29.15;7.93;;;;;;;13.85;23.85;98409.75;5008113;28;20053;-59
2022/03/12 10:39:14;;;;;;;27.00;7.35;;;;;;;14.54;27.36;98416.88;5008208;28;20040;-60
2022/03/12 10:41:41;;;;;;;30.60;8.00;;;;;;;14.26;25.57;98406.88;5007084;28;20034;-60
2022/03/12 10:44:06;;;;;;;28.67;8.40;;;;;;;13.98;22.87;98403.00;5007975;28;20042;-60
2022/03/12 10:46:34;;;;;;;30.70;8.73;;;;;;;12.81;24.98;98403.09;5008132;28;20033;-58
2022/03/12 10:49:02;;;;;;;34.33;9.07;;;;;;;12.88;23.01;98404.53;5008247;28;20400;-59
2022/03/12 10:51:34;;;;;;;30.50;9.00;;;;;;;14.15;27.14;98396.06;5005741;28;20033;-60
2022/03/12 10:54:04;;;;;;;21.13;7.50;;;;;;;14.46;26.56;98385.78;5008171;28;20028;-58
2022/03/12 10:56:50;;;;;;;19.60;6.78;;;;;;;14.53;25.50;98385.44;5007375;28;20172;-58
2022/03/12 10:59:21;;;;;;;25.67;7.25;;;;;;;14.82;24.71;98390.06;5007981;28;20018;-58
2022/03/12 11:01:49;;;;;;;20.23;6.40;;;;;;;14.83;28.53;98390.91;5007558;28;20034;-57
2022/03/12 11:04:20;;;;;;;21.08;6.47;;;;;;;14.78;23.87;98393.78;5008179;28;20038;-56
2022/03/12 11:06:46;;;;;;;25.25;7.20;;;;;;;14.52;24.74;98392.47;5006285;28;20399;-56
2022/03/12 11:09:18;;;;;;;28.55;8.48;;;;;;;13.83;23.86;98385.38;5009417;28;20052;-58
2022/03/12 11:11:44;;;;;;;29.75;8.52;;;;;;;14.75;23.33;98390.47;5006007;28;20416;-56
2022/03/12 11:14:18;;;;;;;27.42;7.90;;;;;;;15.22;22.67;98382.72;5009412;28;20025;-58
2022/03/12 11:16:50;;;;;;;22.58;7.05;;;;;;;14.77;25.59;98380.75;5006510;28;20041;-56
2022/03/12 11:19:17;;;;;;;19.63;7.00;;;;;;;14.58;26.79;98379.06;5008581;28;20112;-56
2022/03/12 11:21:52;;;;;;;23.48;8.10;;;;;;;15.17;23.41;98368.97;5003914;28;20049;-56
2022/03/12 11:24:23;;;;;;;25.10;7.55;;;;;;;14.82;23.51;98366.44;5005850;28;20113;-57
2022/03/12 11:26:55;;;;;;;27.33;7.55;;;;;;;14.44;26.08;98366.59;5005575;28;20029;-57
2022/03/12 11:29:22;;;;;;;;;;;;;;;14.52;24.98;98357.50;5008980;28;20108;-55
2022/03/12 11:31:53;;;;;;;26.15;6.65;;;;;;;15.26;25.21;98356.28;5007253;28;20028;-57